sensor_id;sensor_type;location;lat;lon;timestamp;P1;durP1;ratioP1;P2;durP2;ratioP2
10947;SDS011;5526;42.070;24.752;2023-01-26T00:00:53;10.63;;;8.80;;
10947;SDS011;5526;42.070;24.752;2023-01-26T00:03:23;11.85;;;9.43;;
10947;SDS011;5526;42.070;24.752;2023-01-26T00:05:50;12.32;;;9.30;;
10947;SDS011;5526;42.070;24.752;2023-01-26T00:08:17;13.27;;;10.20;;
10947;SDS011;5526;42.070;24.752;2023-01-26T00:10:45;14.27;;;11.40;;
10947;SDS011;5526;42.070;24.752;2023-01-26T00:13:16;15.93;;;10.88;;
10947;SDS011;5526;42.070;24.752;2023-01-26T00:15:44;14.35;;;10.32;;
10947;SDS011;5526;42.070;24.752;2023-01-26T00:18:12;14.05;;;10.38;;
10947;SDS011;5526;42.070;24.752;2023-01-26T00:20:40;14.68;;;10.65;;
10947;SDS011;5526;42.070;24.752;2023-01-26T00:23:08;11.40;;;9.55;;
10947;SDS011;5526;42.070;24.752;2023-01-26T00:25:36;11.85;;;10.05;;
10947;SDS011;5526;42.070;24.752;2023-01-26T00:28:05;10.23;;;9.23;;
10947;SDS011;5526;42.070;24.752;2023-01-26T00:30:32;10.57;;;8.68;;
10947;SDS011;5526;42.070;24.752;2023-01-26T00:32:59;11.38;;;9.05;;
10947;SDS011;5526;42.070;24.752;2023-01-26T00:35:27;10.68;;;8.85;;
10947;SDS011;5526;42.070;24.752;2023-01-26T00:37:55;11.05;;;8.95;;
10947;SDS011;5526;42.070;24.752;2023-01-26T00:40:22;10.38;;;8.77;;
10947;SDS011;5526;42.070;24.752;2023-01-26T00:42:50;10.15;;;8.55;;
10947;SDS011;5526;42.070;24.752;2023-01-26T00:45:18;9.63;;;8.60;;
10947;SDS011;5526;42.070;24.752;2023-01-26T00:47:46;9.85;;;8.77;;
10947;SDS011;5526;42.070;24.752;2023-01-26T00:50:13;11.15;;;9.48;;
10947;SDS011;5526;42.070;24.752;2023-01-26T00:52:41;9.95;;;8.35;;
10947;SDS011;5526;42.070;24.752;2023-01-26T00:55:09;10.07;;;8.25;;
10947;SDS011;5526;42.070;24.752;2023-01-26T00:57:37;9.43;;;8.40;;
10947;SDS011;5526;42.070;24.752;2023-01-26T01:00:04;10.95;;;8.73;;
10947;SDS011;5526;42.070;24.752;2023-01-26T01:02:33;11.25;;;9.35;;
10947;SDS011;5526;42.070;24.752;2023-01-26T01:05:00;12.82;;;9.25;;
10947;SDS011;5526;42.070;24.752;2023-01-26T01:07:28;11.88;;;9.43;;
10947;SDS011;5526;42.070;24.752;2023-01-26T01:09:55;11.73;;;9.77;;
10947;SDS011;5526;42.070;24.752;2023-01-26T01:12:26;12.48;;;9.43;;
10947;SDS011;5526;42.070;24.752;2023-01-26T01:14:54;11.23;;;9.25;;
10947;SDS011;5526;42.070;24.752;2023-01-26T01:17:21;11.27;;;9.90;;
10947;SDS011;5526;42.070;24.752;2023-01-26T01:19:48;11.55;;;9.45;;
10947;SDS011;5526;42.070;24.752;2023-01-26T01:22:15;10.45;;;8.75;;
10947;SDS011;5526;42.070;24.752;2023-01-26T01:24:43;10.32;;;9.23;;
10947;SDS011;5526;42.070;24.752;2023-01-26T01:27:10;11.80;;;9.50;;
10947;SDS011;5526;42.070;24.752;2023-01-26T01:29:39;10.65;;;9.48;;
10947;SDS011;5526;42.070;24.752;2023-01-26T01:32:06;11.48;;;9.75;;
10947;SDS011;5526;42.070;24.752;2023-01-26T01:34:33;11.25;;;9.57;;
10947;SDS011;5526;42.070;24.752;2023-01-26T01:37:00;12.63;;;9.40;;
10947;SDS011;5526;42.070;24.752;2023-01-26T01:39:28;9.45;;;8.02;;
10947;SDS011;5526;42.070;24.752;2023-01-26T01:41:55;10.52;;;8.55;;
10947;SDS011;5526;42.070;24.752;2023-01-26T01:44:23;10.55;;;9.50;;
10947;SDS011;5526;42.070;24.752;2023-01-26T01:46:53;13.52;;;10.88;;
10947;SDS011;5526;42.070;24.752;2023-01-26T01:49:25;17.00;;;12.45;;
10947;SDS011;5526;42.070;24.752;2023-01-26T01:51:56;16.67;;;11.02;;
10947;SDS011;5526;42.070;24.752;2023-01-26T01:54:29;13.10;;;10.93;;
10947;SDS011;5526;42.070;24.752;2023-01-26T01:57:01;14.57;;;11.38;;
10947;SDS011;5526;42.070;24.752;2023-01-26T01:59:39;14.05;;;11.57;;
10947;SDS011;5526;42.070;24.752;2023-01-26T02:02:12;16.05;;;12.65;;
10947;SDS011;5526;42.070;24.752;2023-01-26T02:04:40;15.82;;;13.00;;
10947;SDS011;5526;42.070;24.752;2023-01-26T02:07:07;15.55;;;13.75;;
10947;SDS011;5526;42.070;24.752;2023-01-26T02:09:37;14.82;;;12.52;;
10947;SDS011;5526;42.070;24.752;2023-01-26T02:12:25;15.52;;;13.13;;
10947;SDS011;5526;42.070;24.752;2023-01-26T02:14:56;15.20;;;13.10;;
10947;SDS011;5526;42.070;24.752;2023-01-26T02:17:25;16.67;;;13.68;;
10947;SDS011;5526;42.070;24.752;2023-01-26T02:19:55;15.02;;;12.55;;
10947;SDS011;5526;42.070;24.752;2023-01-26T02:22:31;15.88;;;12.88;;
10947;SDS011;5526;42.070;24.752;2023-01-26T02:25:11;15.23;;;12.77;;
10947;SDS011;5526;42.070;24.752;2023-01-26T02:27:46;16.50;;;13.65;;
10947;SDS011;5526;42.070;24.752;2023-01-26T02:30:14;16.42;;;13.40;;
10947;SDS011;5526;42.070;24.752;2023-01-26T02:32:43;15.68;;;13.88;;
10947;SDS011;5526;42.070;24.752;2023-01-26T02:35:10;16.15;;;13.60;;
10947;SDS011;5526;42.070;24.752;2023-01-26T02:37:37;15.32;;;12.68;;
10947;SDS011;5526;42.070;24.752;2023-01-26T02:40:06;16.20;;;13.52;;
10947;SDS011;5526;42.070;24.752;2023-01-26T02:42:39;15.52;;;13.55;;
10947;SDS011;5526;42.070;24.752;2023-01-26T02:45:09;15.43;;;13.15;;
10947;SDS011;5526;42.070;24.752;2023-01-26T02:47:39;15.70;;;13.20;;
10947;SDS011;5526;42.070;24.752;2023-01-26T02:50:07;16.23;;;13.13;;
10947;SDS011;5526;42.070;24.752;2023-01-26T02:52:34;15.98;;;13.02;;
10947;SDS011;5526;42.070;24.752;2023-01-26T02:55:02;16.95;;;13.93;;
10947;SDS011;5526;42.070;24.752;2023-01-26T02:57:49;15.25;;;12.73;;
10947;SDS011;5526;42.070;24.752;2023-01-26T03:00:19;15.25;;;12.68;;
10947;SDS011;5526;42.070;24.752;2023-01-26T03:02:48;15.20;;;13.00;;
10947;SDS011;5526;42.070;24.752;2023-01-26T03:05:17;17.63;;;13.15;;
10947;SDS011;5526;42.070;24.752;2023-01-26T03:07:45;15.25;;;11.98;;
10947;SDS011;5526;42.070;24.752;2023-01-26T03:10:12;17.42;;;12.50;;
10947;SDS011;5526;42.070;24.752;2023-01-26T03:12:40;14.80;;;12.85;;
10947;SDS011;5526;42.070;24.752;2023-01-26T03:15:08;13.82;;;11.68;;
10947;SDS011;5526;42.070;24.752;2023-01-26T03:18:01;16.05;;;12.40;;
10947;SDS011;5526;42.070;24.752;2023-01-26T03:20:46;15.07;;;12.13;;
10947;SDS011;5526;42.070;24.752;2023-01-26T03:23:30;17.80;;;13.73;;
10947;SDS011;5526;42.070;24.752;2023-01-26T03:26:15;15.80;;;12.65;;
10947;SDS011;5526;42.070;24.752;2023-01-26T03:28:59;17.98;;;14.32;;
10947;SDS011;5526;42.070;24.752;2023-01-26T03:31:26;15.70;;;12.88;;
10947;SDS011;5526;42.070;24.752;2023-01-26T03:33:55;14.93;;;12.98;;
10947;SDS011;5526;42.070;24.752;2023-01-26T03:36:22;14.25;;;11.75;;
10947;SDS011;5526;42.070;24.752;2023-01-26T03:38:49;17.23;;;13.52;;
10947;SDS011;5526;42.070;24.752;2023-01-26T03:41:17;15.52;;;12.80;;
10947;SDS011;5526;42.070;24.752;2023-01-26T03:44:01;14.30;;;12.18;;
10947;SDS011;5526;42.070;24.752;2023-01-26T03:46:45;14.70;;;12.13;;
10947;SDS011;5526;42.070;24.752;2023-01-26T03:49:31;15.25;;;12.27;;
10947;SDS011;5526;42.070;24.752;2023-01-26T03:52:15;17.08;;;13.15;;
10947;SDS011;5526;42.070;24.752;2023-01-26T03:55:00;16.73;;;13.02;;
10947;SDS011;5526;42.070;24.752;2023-01-26T03:57:44;15.02;;;12.63;;
10947;SDS011;5526;42.070;24.752;2023-01-26T04:00:13;17.10;;;13.30;;
10947;SDS011;5526;42.070;24.752;2023-01-26T04:02:41;16.83;;;13.00;;
10947;SDS011;5526;42.070;24.752;2023-01-26T04:05:27;18.50;;;14.95;;
10947;SDS011;5526;42.070;24.752;2023-01-26T04:08:11;32.85;;;23.88;;
10947;SDS011;5526;42.070;24.752;2023-01-26T04:10:48;19.88;;;17.00;;
10947;SDS011;5526;42.070;24.752;2023-01-26T04:13:16;19.38;;;16.20;;
10947;SDS011;5526;42.070;24.752;2023-01-26T04:16:01;15.02;;;13.32;;
10947;SDS011;5526;42.070;24.752;2023-01-26T04:18:45;16.10;;;13.07;;
10947;SDS011;5526;42.070;24.752;2023-01-26T04:21:31;16.08;;;13.40;;
10947;SDS011;5526;42.070;24.752;2023-01-26T04:24:00;14.27;;;12.77;;
10947;SDS011;5526;42.070;24.752;2023-01-26T04:26:34;16.90;;;12.75;;
10947;SDS011;5526;42.070;24.752;2023-01-26T04:29:03;16.65;;;12.68;;
10947;SDS011;5526;42.070;24.752;2023-01-26T04:31:32;14.98;;;12.90;;
10947;SDS011;5526;42.070;24.752;2023-01-26T04:33:59;16.60;;;13.45;;
10947;SDS011;5526;42.070;24.752;2023-01-26T04:36:27;16.63;;;13.13;;
10947;SDS011;5526;42.070;24.752;2023-01-26T04:38:56;14.13;;;12.63;;
10947;SDS011;5526;42.070;24.752;2023-01-26T04:41:24;16.13;;;12.25;;
10947;SDS011;5526;42.070;24.752;2023-01-26T04:43:51;13.82;;;11.98;;
10947;SDS011;5526;42.070;24.752;2023-01-26T04:46:18;18.70;;;12.18;;
10947;SDS011;5526;42.070;24.752;2023-01-26T04:48:45;14.40;;;11.88;;
10947;SDS011;5526;42.070;24.752;2023-01-26T04:51:13;16.05;;;12.00;;
10947;SDS011;5526;42.070;24.752;2023-01-26T04:53:41;15.00;;;12.25;;
10947;SDS011;5526;42.070;24.752;2023-01-26T04:56:13;17.02;;;12.30;;
10947;SDS011;5526;42.070;24.752;2023-01-26T04:58:46;15.77;;;12.82;;
10947;SDS011;5526;42.070;24.752;2023-01-26T05:01:13;17.10;;;12.38;;
10947;SDS011;5526;42.070;24.752;2023-01-26T05:03:40;15.85;;;12.63;;
10947;SDS011;5526;42.070;24.752;2023-01-26T05:06:07;15.73;;;12.00;;
10947;SDS011;5526;42.070;24.752;2023-01-26T05:08:35;14.00;;;11.38;;
10947;SDS011;5526;42.070;24.752;2023-01-26T05:11:03;14.27;;;12.13;;
10947;SDS011;5526;42.070;24.752;2023-01-26T05:13:32;13.73;;;11.55;;
10947;SDS011;5526;42.070;24.752;2023-01-26T05:16:00;16.33;;;13.13;;
10947;SDS011;5526;42.070;24.752;2023-01-26T05:18:27;14.90;;;11.52;;
10947;SDS011;5526;42.070;24.752;2023-01-26T05:20:55;14.30;;;11.10;;
10947;SDS011;5526;42.070;24.752;2023-01-26T05:23:22;14.82;;;11.73;;
10947;SDS011;5526;42.070;24.752;2023-01-26T05:25:49;15.25;;;11.95;;
10947;SDS011;5526;42.070;24.752;2023-01-26T05:28:17;15.23;;;11.50;;
10947;SDS011;5526;42.070;24.752;2023-01-26T05:30:45;12.30;;;11.02;;
10947;SDS011;5526;42.070;24.752;2023-01-26T05:33:13;17.13;;;11.50;;
10947;SDS011;5526;42.070;24.752;2023-01-26T05:35:40;16.35;;;11.95;;
10947;SDS011;5526;42.070;24.752;2023-01-26T05:38:08;13.52;;;11.35;;
10947;SDS011;5526;42.070;24.752;2023-01-26T05:40:35;14.55;;;11.32;;
10947;SDS011;5526;42.070;24.752;2023-01-26T05:43:02;13.30;;;11.60;;
10947;SDS011;5526;42.070;24.752;2023-01-26T05:45:29;15.27;;;12.00;;
10947;SDS011;5526;42.070;24.752;2023-01-26T05:47:58;13.10;;;11.35;;
10947;SDS011;5526;42.070;24.752;2023-01-26T05:50:25;12.07;;;10.82;;
10947;SDS011;5526;42.070;24.752;2023-01-26T05:52:53;12.85;;;10.88;;
10947;SDS011;5526;42.070;24.752;2023-01-26T05:55:20;12.15;;;10.15;;
10947;SDS011;5526;42.070;24.752;2023-01-26T05:57:48;12.95;;;10.63;;
10947;SDS011;5526;42.070;24.752;2023-01-26T06:00:15;11.77;;;10.32;;
10947;SDS011;5526;42.070;24.752;2023-01-26T06:02:43;13.48;;;10.75;;
10947;SDS011;5526;42.070;24.752;2023-01-26T06:05:12;15.15;;;10.10;;
10947;SDS011;5526;42.070;24.752;2023-01-26T06:07:39;13.35;;;10.73;;
10947;SDS011;5526;42.070;24.752;2023-01-26T06:10:07;12.05;;;10.57;;
10947;SDS011;5526;42.070;24.752;2023-01-26T06:12:35;13.35;;;11.05;;
10947;SDS011;5526;42.070;24.752;2023-01-26T06:15:03;12.57;;;11.10;;
10947;SDS011;5526;42.070;24.752;2023-01-26T06:17:31;12.45;;;10.88;;
10947;SDS011;5526;42.070;24.752;2023-01-26T06:19:59;13.10;;;10.80;;
10947;SDS011;5526;42.070;24.752;2023-01-26T06:22:27;12.00;;;10.40;;
10947;SDS011;5526;42.070;24.752;2023-01-26T06:24:55;11.55;;;10.30;;
10947;SDS011;5526;42.070;24.752;2023-01-26T06:27:22;10.93;;;9.18;;
10947;SDS011;5526;42.070;24.752;2023-01-26T06:29:49;12.93;;;10.48;;
10947;SDS011;5526;42.070;24.752;2023-01-26T06:32:16;11.32;;;10.13;;
10947;SDS011;5526;42.070;24.752;2023-01-26T06:34:43;13.80;;;11.70;;
10947;SDS011;5526;42.070;24.752;2023-01-26T06:37:11;12.45;;;10.25;;
10947;SDS011;5526;42.070;24.752;2023-01-26T06:39:40;11.55;;;9.70;;
10947;SDS011;5526;42.070;24.752;2023-01-26T06:42:08;12.75;;;10.65;;
10947;SDS011;5526;42.070;24.752;2023-01-26T06:44:37;13.40;;;10.60;;
10947;SDS011;5526;42.070;24.752;2023-01-26T06:47:04;14.00;;;10.93;;
10947;SDS011;5526;42.070;24.752;2023-01-26T06:49:33;18.13;;;15.00;;
10947;SDS011;5526;42.070;24.752;2023-01-26T06:52:02;14.38;;;11.73;;
10947;SDS011;5526;42.070;24.752;2023-01-26T06:54:30;12.57;;;10.57;;
10947;SDS011;5526;42.070;24.752;2023-01-26T06:56:59;14.73;;;10.82;;
10947;SDS011;5526;42.070;24.752;2023-01-26T06:59:26;12.88;;;10.35;;
10947;SDS011;5526;42.070;24.752;2023-01-26T07:01:53;21.50;;;18.10;;
10947;SDS011;5526;42.070;24.752;2023-01-26T07:04:21;21.10;;;18.02;;
10947;SDS011;5526;42.070;24.752;2023-01-26T07:06:51;17.95;;;14.25;;
10947;SDS011;5526;42.070;24.752;2023-01-26T07:09:18;13.45;;;11.38;;
10947;SDS011;5526;42.070;24.752;2023-01-26T07:11:45;13.10;;;11.63;;
10947;SDS011;5526;42.070;24.752;2023-01-26T07:14:14;18.95;;;14.48;;
10947;SDS011;5526;42.070;24.752;2023-01-26T07:16:41;18.90;;;16.30;;
10947;SDS011;5526;42.070;24.752;2023-01-26T07:19:09;26.27;;;21.13;;
10947;SDS011;5526;42.070;24.752;2023-01-26T07:21:36;16.08;;;11.75;;
10947;SDS011;5526;42.070;24.752;2023-01-26T07:24:03;16.80;;;13.75;;
10947;SDS011;5526;42.070;24.752;2023-01-26T07:26:32;14.50;;;11.93;;
10947;SDS011;5526;42.070;24.752;2023-01-26T07:28:59;12.93;;;10.77;;
10947;SDS011;5526;42.070;24.752;2023-01-26T07:31:28;13.45;;;11.57;;
10947;SDS011;5526;42.070;24.752;2023-01-26T07:33:55;12.77;;;10.02;;
10947;SDS011;5526;42.070;24.752;2023-01-26T07:36:22;13.57;;;10.57;;
10947;SDS011;5526;42.070;24.752;2023-01-26T07:38:50;15.27;;;12.25;;
10947;SDS011;5526;42.070;24.752;2023-01-26T07:41:17;16.33;;;13.50;;
10947;SDS011;5526;42.070;24.752;2023-01-26T07:43:45;15.05;;;13.30;;
10947;SDS011;5526;42.070;24.752;2023-01-26T07:46:14;15.88;;;11.85;;
10947;SDS011;5526;42.070;24.752;2023-01-26T07:48:43;14.82;;;11.68;;
10947;SDS011;5526;42.070;24.752;2023-01-26T07:51:10;17.00;;;12.25;;
10947;SDS011;5526;42.070;24.752;2023-01-26T07:53:37;16.15;;;12.75;;
10947;SDS011;5526;42.070;24.752;2023-01-26T07:56:07;14.93;;;12.23;;
10947;SDS011;5526;42.070;24.752;2023-01-26T07:58:36;14.52;;;11.48;;
10947;SDS011;5526;42.070;24.752;2023-01-26T08:01:05;16.10;;;13.35;;
10947;SDS011;5526;42.070;24.752;2023-01-26T08:03:33;16.17;;;12.07;;
10947;SDS011;5526;42.070;24.752;2023-01-26T08:06:02;16.42;;;11.50;;
10947;SDS011;5526;42.070;24.752;2023-01-26T08:08:30;17.48;;;11.57;;
10947;SDS011;5526;42.070;24.752;2023-01-26T08:10:57;15.48;;;12.15;;
10947;SDS011;5526;42.070;24.752;2023-01-26T08:13:26;14.25;;;12.20;;
10947;SDS011;5526;42.070;24.752;2023-01-26T08:15:53;12.85;;;10.60;;
10947;SDS011;5526;42.070;24.752;2023-01-26T08:18:21;13.50;;;10.77;;
10947;SDS011;5526;42.070;24.752;2023-01-26T08:20:49;12.00;;;10.35;;
10947;SDS011;5526;42.070;24.752;2023-01-26T08:23:18;15.52;;;12.23;;
10947;SDS011;5526;42.070;24.752;2023-01-26T08:25:45;16.30;;;12.20;;
10947;SDS011;5526;42.070;24.752;2023-01-26T08:28:13;10.80;;;8.88;;
10947;SDS011;5526;42.070;24.752;2023-01-26T08:30:40;12.23;;;9.35;;
10947;SDS011;5526;42.070;24.752;2023-01-26T08:33:08;12.10;;;9.32;;
10947;SDS011;5526;42.070;24.752;2023-01-26T08:35:35;11.77;;;9.02;;
10947;SDS011;5526;42.070;24.752;2023-01-26T08:38:02;12.50;;;8.82;;
10947;SDS011;5526;42.070;24.752;2023-01-26T08:40:31;11.73;;;8.90;;
10947;SDS011;5526;42.070;24.752;2023-01-26T08:42:59;14.23;;;10.45;;
10947;SDS011;5526;42.070;24.752;2023-01-26T08:45:27;11.50;;;8.68;;
10947;SDS011;5526;42.070;24.752;2023-01-26T08:47:55;13.15;;;9.32;;
10947;SDS011;5526;42.070;24.752;2023-01-26T08:50:23;13.38;;;9.63;;
10947;SDS011;5526;42.070;24.752;2023-01-26T08:52:51;11.18;;;9.27;;
10947;SDS011;5526;42.070;24.752;2023-01-26T08:55:21;19.13;;;14.57;;
10947;SDS011;5526;42.070;24.752;2023-01-26T08:57:52;52.75;;;35.90;;
10947;SDS011;5526;42.070;24.752;2023-01-26T09:00:21;31.42;;;22.80;;
10947;SDS011;5526;42.070;24.752;2023-01-26T09:02:49;14.75;;;10.43;;
10947;SDS011;5526;42.070;24.752;2023-01-26T09:05:16;12.20;;;9.43;;
10947;SDS011;5526;42.070;24.752;2023-01-26T09:07:44;11.45;;;8.80;;
10947;SDS011;5526;42.070;24.752;2023-01-26T09:10:11;11.23;;;9.98;;
10947;SDS011;5526;42.070;24.752;2023-01-26T09:12:38;11.95;;;9.85;;
10947;SDS011;5526;42.070;24.752;2023-01-26T09:15:07;13.18;;;9.95;;
10947;SDS011;5526;42.070;24.752;2023-01-26T09:17:35;12.00;;;9.57;;
10947;SDS011;5526;42.070;24.752;2023-01-26T09:20:03;11.85;;;9.80;;
10947;SDS011;5526;42.070;24.752;2023-01-26T09:22:31;16.13;;;12.38;;
10947;SDS011;5526;42.070;24.752;2023-01-26T09:24:58;14.70;;;12.57;;
10947;SDS011;5526;42.070;24.752;2023-01-26T09:27:26;14.00;;;10.48;;
10947;SDS011;5526;42.070;24.752;2023-01-26T09:29:53;13.57;;;10.75;;
10947;SDS011;5526;42.070;24.752;2023-01-26T09:32:22;12.77;;;10.13;;
10947;SDS011;5526;42.070;24.752;2023-01-26T09:34:50;13.60;;;10.85;;
10947;SDS011;5526;42.070;24.752;2023-01-26T09:37:17;13.57;;;11.05;;
10947;SDS011;5526;42.070;24.752;2023-01-26T09:39:44;16.30;;;12.40;;
10947;SDS011;5526;42.070;24.752;2023-01-26T09:42:24;14.07;;;11.23;;
10947;SDS011;5526;42.070;24.752;2023-01-26T09:45:02;13.68;;;11.32;;
10947;SDS011;5526;42.070;24.752;2023-01-26T09:47:45;14.43;;;11.40;;
10947;SDS011;5526;42.070;24.752;2023-01-26T09:50:25;17.00;;;13.10;;
10947;SDS011;5526;42.070;24.752;2023-01-26T09:52:57;21.73;;;17.40;;
10947;SDS011;5526;42.070;24.752;2023-01-26T09:55:28;23.77;;;19.13;;
10947;SDS011;5526;42.070;24.752;2023-01-26T09:57:57;17.42;;;13.32;;
10947;SDS011;5526;42.070;24.752;2023-01-26T10:00:29;17.30;;;13.52;;
10947;SDS011;5526;42.070;24.752;2023-01-26T10:03:10;16.13;;;12.23;;
10947;SDS011;5526;42.070;24.752;2023-01-26T10:05:46;21.13;;;17.77;;
10947;SDS011;5526;42.070;24.752;2023-01-26T10:08:18;16.58;;;13.60;;
10947;SDS011;5526;42.070;24.752;2023-01-26T10:10:48;15.60;;;12.60;;
10947;SDS011;5526;42.070;24.752;2023-01-26T10:13:18;13.98;;;11.65;;
10947;SDS011;5526;42.070;24.752;2023-01-26T10:15:48;13.25;;;11.80;;
10947;SDS011;5526;42.070;24.752;2023-01-26T10:18:21;13.35;;;11.05;;
10947;SDS011;5526;42.070;24.752;2023-01-26T10:20:53;12.75;;;10.80;;
10947;SDS011;5526;42.070;24.752;2023-01-26T10:23:23;13.25;;;11.45;;
10947;SDS011;5526;42.070;24.752;2023-01-26T10:25:55;12.27;;;10.00;;
10947;SDS011;5526;42.070;24.752;2023-01-26T10:28:32;12.32;;;10.10;;
10947;SDS011;5526;42.070;24.752;2023-01-26T10:31:01;14.45;;;10.90;;
10947;SDS011;5526;42.070;24.752;2023-01-26T10:33:31;13.98;;;10.82;;
10947;SDS011;5526;42.070;24.752;2023-01-26T10:36:01;14.68;;;10.80;;
10947;SDS011;5526;42.070;24.752;2023-01-26T10:38:38;14.15;;;11.23;;
10947;SDS011;5526;42.070;24.752;2023-01-26T10:41:20;12.98;;;11.05;;
10947;SDS011;5526;42.070;24.752;2023-01-26T10:43:53;14.27;;;11.45;;
10947;SDS011;5526;42.070;24.752;2023-01-26T10:46:23;14.07;;;11.57;;
10947;SDS011;5526;42.070;24.752;2023-01-26T10:48:57;12.05;;;10.27;;
10947;SDS011;5526;42.070;24.752;2023-01-26T10:51:27;12.35;;;10.35;;
10947;SDS011;5526;42.070;24.752;2023-01-26T10:56:48;16.15;;;12.80;;
10947;SDS011;5526;42.070;24.752;2023-01-26T10:59:21;14.77;;;12.25;;
10947;SDS011;5526;42.070;24.752;2023-01-26T11:01:56;14.60;;;11.73;;
10947;SDS011;5526;42.070;24.752;2023-01-26T11:04:28;17.10;;;15.30;;
10947;SDS011;5526;42.070;24.752;2023-01-26T11:09:51;15.80;;;12.90;;
10947;SDS011;5526;42.070;24.752;2023-01-26T11:12:19;15.80;;;12.73;;
10947;SDS011;5526;42.070;24.752;2023-01-26T11:14:59;14.32;;;12.25;;
10947;SDS011;5526;42.070;24.752;2023-01-26T11:17:29;17.88;;;13.30;;
10947;SDS011;5526;42.070;24.752;2023-01-26T11:20:15;16.35;;;13.90;;
10947;SDS011;5526;42.070;24.752;2023-01-26T11:23:07;17.73;;;14.40;;
10947;SDS011;5526;42.070;24.752;2023-01-26T11:25:43;15.85;;;13.57;;
10947;SDS011;5526;42.070;24.752;2023-01-26T11:28:29;14.50;;;11.93;;
10947;SDS011;5526;42.070;24.752;2023-01-26T11:31:10;11.98;;;10.65;;
10947;SDS011;5526;42.070;24.752;2023-01-26T11:33:44;10.52;;;9.40;;
10947;SDS011;5526;42.070;24.752;2023-01-26T11:36:25;13.43;;;10.60;;
10947;SDS011;5526;42.070;24.752;2023-01-26T11:39:00;11.93;;;10.73;;
10947;SDS011;5526;42.070;24.752;2023-01-26T11:41:39;12.35;;;11.05;;
10947;SDS011;5526;42.070;24.752;2023-01-26T11:44:26;13.93;;;10.98;;
10947;SDS011;5526;42.070;24.752;2023-01-26T11:47:10;15.05;;;12.05;;
10947;SDS011;5526;42.070;24.752;2023-01-26T11:49:58;12.77;;;11.45;;
10947;SDS011;5526;42.070;24.752;2023-01-26T11:52:40;11.07;;;9.52;;
10947;SDS011;5526;42.070;24.752;2023-01-26T11:55:17;8.95;;;8.05;;
10947;SDS011;5526;42.070;24.752;2023-01-26T11:57:58;10.07;;;7.93;;
10947;SDS011;5526;42.070;24.752;2023-01-26T12:00:40;7.90;;;7.13;;
10947;SDS011;5526;42.070;24.752;2023-01-26T12:03:15;7.13;;;6.43;;
10947;SDS011;5526;42.070;24.752;2023-01-26T12:05:50;9.52;;;8.73;;
10947;SDS011;5526;42.070;24.752;2023-01-26T12:08:22;7.47;;;6.78;;
10947;SDS011;5526;42.070;24.752;2023-01-26T12:10:57;7.88;;;7.18;;
10947;SDS011;5526;42.070;24.752;2023-01-26T12:13:47;6.72;;;6.03;;
10947;SDS011;5526;42.070;24.752;2023-01-26T12:16:22;8.30;;;7.50;;
10947;SDS011;5526;42.070;24.752;2023-01-26T12:18:58;8.38;;;7.57;;
10947;SDS011;5526;42.070;24.752;2023-01-26T12:21:36;7.47;;;6.78;;
10947;SDS011;5526;42.070;24.752;2023-01-26T12:24:09;7.53;;;6.85;;
10947;SDS011;5526;42.070;24.752;2023-01-26T12:26:46;7.32;;;6.63;;
10947;SDS011;5526;42.070;24.752;2023-01-26T12:29:17;7.25;;;6.63;;
10947;SDS011;5526;42.070;24.752;2023-01-26T12:31:53;7.68;;;6.88;;
10947;SDS011;5526;42.070;24.752;2023-01-26T12:34:25;8.50;;;7.70;;
10947;SDS011;5526;42.070;24.752;2023-01-26T12:37:00;9.50;;;8.65;;
10947;SDS011;5526;42.070;24.752;2023-01-26T12:39:39;8.00;;;7.07;;
10947;SDS011;5526;42.070;24.752;2023-01-26T12:42:15;7.60;;;6.75;;
10947;SDS011;5526;42.070;24.752;2023-01-26T12:44:51;7.25;;;6.55;;
10947;SDS011;5526;42.070;24.752;2023-01-26T12:47:21;7.22;;;6.53;;
10947;SDS011;5526;42.070;24.752;2023-01-26T12:49:54;7.25;;;6.55;;
10947;SDS011;5526;42.070;24.752;2023-01-26T12:52:27;7.35;;;6.60;;
10947;SDS011;5526;42.070;24.752;2023-01-26T12:55:02;7.22;;;6.53;;
10947;SDS011;5526;42.070;24.752;2023-01-26T12:57:33;9.40;;;8.60;;
10947;SDS011;5526;42.070;24.752;2023-01-26T13:00:16;8.50;;;7.70;;
10947;SDS011;5526;42.070;24.752;2023-01-26T13:02:45;8.52;;;7.63;;
10947;SDS011;5526;42.070;24.752;2023-01-26T13:05:22;9.60;;;8.70;;
10947;SDS011;5526;42.070;24.752;2023-01-26T13:07:52;8.02;;;7.32;;
10947;SDS011;5526;42.070;24.752;2023-01-26T13:10:22;7.97;;;7.20;;
10947;SDS011;5526;42.070;24.752;2023-01-26T13:12:56;7.97;;;7.18;;
10947;SDS011;5526;42.070;24.752;2023-01-26T13:15:25;9.48;;;8.48;;
10947;SDS011;5526;42.070;24.752;2023-01-26T13:17:57;10.05;;;9.05;;
10947;SDS011;5526;42.070;24.752;2023-01-26T13:26:14;10.55;;;9.52;;
10947;SDS011;5526;42.070;24.752;2023-01-26T13:28:43;11.35;;;10.15;;
10947;SDS011;5526;42.070;24.752;2023-01-26T13:31:12;9.88;;;8.88;;
10947;SDS011;5526;42.070;24.752;2023-01-26T13:33:54;9.77;;;8.77;;
10947;SDS011;5526;42.070;24.752;2023-01-26T13:36:23;10.35;;;9.10;;
10947;SDS011;5526;42.070;24.752;2023-01-26T13:38:52;10.23;;;8.48;;
10947;SDS011;5526;42.070;24.752;2023-01-26T13:41:27;9.30;;;8.40;;
10947;SDS011;5526;42.070;24.752;2023-01-26T13:43:56;8.38;;;7.57;;
10947;SDS011;5526;42.070;24.752;2023-01-26T13:46:33;7.35;;;6.65;;
10947;SDS011;5526;42.070;24.752;2023-01-26T13:49:04;7.43;;;6.72;;
10947;SDS011;5526;42.070;24.752;2023-01-26T13:51:49;6.72;;;6.13;;
10947;SDS011;5526;42.070;24.752;2023-01-26T13:54:16;7.38;;;6.68;;
10947;SDS011;5526;42.070;24.752;2023-01-26T13:56:59;7.78;;;7.07;;
10947;SDS011;5526;42.070;24.752;2023-01-26T13:59:28;7.22;;;6.53;;
10947;SDS011;5526;42.070;24.752;2023-01-26T14:01:57;7.25;;;6.55;;
10947;SDS011;5526;42.070;24.752;2023-01-26T14:04:25;7.68;;;6.88;;
10947;SDS011;5526;42.070;24.752;2023-01-26T14:06:55;7.53;;;6.82;;
10947;SDS011;5526;42.070;24.752;2023-01-26T14:09:26;7.47;;;6.78;;
10947;SDS011;5526;42.070;24.752;2023-01-26T14:11:59;7.13;;;6.47;;
10947;SDS011;5526;42.070;24.752;2023-01-26T14:14:30;7.20;;;6.50;;
10947;SDS011;5526;42.070;24.752;2023-01-26T14:16:59;6.88;;;6.22;;
10947;SDS011;5526;42.070;24.752;2023-01-26T14:19:31;7.50;;;6.80;;
10947;SDS011;5526;42.070;24.752;2023-01-26T14:22:09;7.85;;;6.93;;
10947;SDS011;5526;42.070;24.752;2023-01-26T14:24:39;6.95;;;6.35;;
10947;SDS011;5526;42.070;24.752;2023-01-26T14:27:19;7.90;;;7.07;;
10947;SDS011;5526;42.070;24.752;2023-01-26T14:29:58;7.35;;;6.75;;
10947;SDS011;5526;42.070;24.752;2023-01-26T14:32:26;7.70;;;7.00;;
10947;SDS011;5526;42.070;24.752;2023-01-26T14:34:55;7.60;;;6.90;;
10947;SDS011;5526;42.070;24.752;2023-01-26T14:37:24;7.53;;;6.82;;
10947;SDS011;5526;42.070;24.752;2023-01-26T14:42:49;7.65;;;6.80;;
10947;SDS011;5526;42.070;24.752;2023-01-26T14:45:21;9.80;;;9.00;;
10947;SDS011;5526;42.070;24.752;2023-01-26T14:47:54;8.18;;;7.47;;
10947;SDS011;5526;42.070;24.752;2023-01-26T14:50:25;8.52;;;7.72;;
10947;SDS011;5526;42.070;24.752;2023-01-26T14:52:56;14.60;;;13.10;;
10947;SDS011;5526;42.070;24.752;2023-01-26T14:55:25;15.63;;;13.18;;
10947;SDS011;5526;42.070;24.752;2023-01-26T14:57:56;26.70;;;23.83;;
10947;SDS011;5526;42.070;24.752;2023-01-26T15:00:27;34.10;;;28.90;;
10947;SDS011;5526;42.070;24.752;2023-01-26T15:02:56;50.63;;;42.88;;
10947;SDS011;5526;42.070;24.752;2023-01-26T15:05:30;57.03;;;51.00;;